sensor_id;sensor_type;location;lat;lon;timestamp;P1;durP1;ratioP1;P2;durP2;ratioP2
50745;SDS011;36711;51.972;21.204;2023-09-12T00:01:52;14.00;;;9.80;;
50745;SDS011;36711;51.972;21.204;2023-09-12T00:04:25;17.20;;;11.20;;
50745;SDS011;36711;51.972;21.204;2023-09-12T00:06:52;14.10;;;9.10;;
50745;SDS011;36711;51.972;21.204;2023-09-12T00:09:22;15.10;;;8.60;;
50745;SDS011;36711;51.972;21.204;2023-09-12T00:11:52;10.90;;;8.80;;
50745;SDS011;36711;51.972;21.204;2023-09-12T00:14:19;13.50;;;9.50;;
50745;SDS011;36711;51.972;21.204;2023-09-12T00:16:45;14.10;;;9.40;;
50745;SDS011;36711;51.972;21.204;2023-09-12T00:19:25;15.40;;;11.40;;
50745;SDS011;36711;51.972;21.204;2023-09-12T00:21:53;12.50;;;9.70;;
50745;SDS011;36711;51.972;21.204;2023-09-12T00:24:35;14.90;;;10.00;;
50745;SDS011;36711;51.972;21.204;2023-09-12T00:27:07;16.50;;;10.30;;
50745;SDS011;36711;51.972;21.204;2023-09-12T00:29:40;16.00;;;10.20;;
50745;SDS011;36711;51.972;21.204;2023-09-12T00:32:22;16.80;;;11.10;;
50745;SDS011;36711;51.972;21.204;2023-09-12T00:34:51;15.20;;;11.40;;
50745;SDS011;36711;51.972;21.204;2023-09-12T00:37:20;17.30;;;11.90;;
50745;SDS011;36711;51.972;21.204;2023-09-12T00:39:52;14.60;;;10.20;;
50745;SDS011;36711;51.972;21.204;2023-09-12T00:42:18;12.70;;;9.40;;
50745;SDS011;36711;51.972;21.204;2023-09-12T00:44:45;15.10;;;10.00;;
50745;SDS011;36711;51.972;21.204;2023-09-12T00:47:27;18.10;;;11.10;;
50745;SDS011;36711;51.972;21.204;2023-09-12T00:49:58;13.00;;;10.70;;
50745;SDS011;36711;51.972;21.204;2023-09-12T00:52:26;15.20;;;11.00;;
50745;SDS011;36711;51.972;21.204;2023-09-12T00:54:54;16.50;;;11.70;;
50745;SDS011;36711;51.972;21.204;2023-09-12T00:57:21;16.20;;;11.70;;
50745;SDS011;36711;51.972;21.204;2023-09-12T00:59:51;15.60;;;11.10;;
50745;SDS011;36711;51.972;21.204;2023-09-12T01:02:19;15.20;;;10.20;;
50745;SDS011;36711;51.972;21.204;2023-09-12T01:04:46;16.70;;;10.50;;
50745;SDS011;36711;51.972;21.204;2023-09-12T01:08:28;17.00;;;11.20;;
50745;SDS011;36711;51.972;21.204;2023-09-12T01:11:01;15.70;;;10.80;;
50745;SDS011;36711;51.972;21.204;2023-09-12T01:13:53;17.10;;;11.50;;
50745;SDS011;36711;51.972;21.204;2023-09-12T01:16:34;16.30;;;11.80;;
50745;SDS011;36711;51.972;21.204;2023-09-12T01:19:02;18.90;;;11.30;;
50745;SDS011;36711;51.972;21.204;2023-09-12T01:27:28;15.10;;;11.20;;
50745;SDS011;36711;51.972;21.204;2023-09-12T01:29:57;18.10;;;12.10;;
50745;SDS011;36711;51.972;21.204;2023-09-12T01:32:27;18.10;;;12.50;;
50745;SDS011;36711;51.972;21.204;2023-09-12T01:34:55;18.20;;;12.70;;
50745;SDS011;36711;51.972;21.204;2023-09-12T01:37:24;21.50;;;11.70;;
50745;SDS011;36711;51.972;21.204;2023-09-12T01:39:58;14.00;;;10.30;;
50745;SDS011;36711;51.972;21.204;2023-09-12T01:42:46;14.10;;;10.80;;
50745;SDS011;36711;51.972;21.204;2023-09-12T01:45:15;15.20;;;10.80;;
50745;SDS011;36711;51.972;21.204;2023-09-12T01:47:55;16.90;;;12.10;;
50745;SDS011;36711;51.972;21.204;2023-09-12T01:50:41;19.30;;;12.50;;
50745;SDS011;36711;51.972;21.204;2023-09-12T01:53:11;20.40;;;12.50;;
50745;SDS011;36711;51.972;21.204;2023-09-12T01:58:36;14.80;;;11.10;;
50745;SDS011;36711;51.972;21.204;2023-09-12T02:01:05;13.90;;;10.20;;
50745;SDS011;36711;51.972;21.204;2023-09-12T02:03:32;16.20;;;10.90;;
50745;SDS011;36711;51.972;21.204;2023-09-12T02:06:03;22.00;;;12.20;;
50745;SDS011;36711;51.972;21.204;2023-09-12T02:08:30;19.20;;;12.00;;
50745;SDS011;36711;51.972;21.204;2023-09-12T02:10:56;17.30;;;12.10;;
50745;SDS011;36711;51.972;21.204;2023-09-12T02:13:23;24.20;;;11.70;;
50745;SDS011;36711;51.972;21.204;2023-09-12T02:16:01;14.20;;;10.60;;
50745;SDS011;36711;51.972;21.204;2023-09-12T02:18:44;15.90;;;10.70;;
50745;SDS011;36711;51.972;21.204;2023-09-12T02:21:16;17.30;;;11.20;;
50745;SDS011;36711;51.972;21.204;2023-09-12T02:23:53;18.90;;;11.80;;
50745;SDS011;36711;51.972;21.204;2023-09-12T02:26:19;18.30;;;11.80;;
50745;SDS011;36711;51.972;21.204;2023-09-12T02:28:46;17.40;;;12.40;;
50745;SDS011;36711;51.972;21.204;2023-09-12T02:31:25;15.70;;;10.40;;
50745;SDS011;36711;51.972;21.204;2023-09-12T02:33:52;15.80;;;11.10;;
50745;SDS011;36711;51.972;21.204;2023-09-12T02:36:20;16.40;;;10.90;;
50745;SDS011;36711;51.972;21.204;2023-09-12T02:38:52;14.50;;;10.60;;
50745;SDS011;36711;51.972;21.204;2023-09-12T02:41:40;16.10;;;11.50;;
50745;SDS011;36711;51.972;21.204;2023-09-12T02:44:13;15.10;;;11.40;;
50745;SDS011;36711;51.972;21.204;2023-09-12T02:47:01;16.40;;;11.20;;
50745;SDS011;36711;51.972;21.204;2023-09-12T02:49:28;18.60;;;11.10;;
50745;SDS011;36711;51.972;21.204;2023-09-12T02:51:55;14.80;;;10.40;;
50745;SDS011;36711;51.972;21.204;2023-09-12T02:54:25;14.20;;;10.20;;
50745;SDS011;36711;51.972;21.204;2023-09-12T03:00:01;18.40;;;10.70;;
50745;SDS011;36711;51.972;21.204;2023-09-12T03:02:39;17.50;;;12.60;;
50745;SDS011;36711;51.972;21.204;2023-09-12T03:05:09;15.00;;;11.20;;
50745;SDS011;36711;51.972;21.204;2023-09-12T03:07:36;17.50;;;9.80;;
50745;SDS011;36711;51.972;21.204;2023-09-12T03:10:20;15.70;;;10.20;;
50745;SDS011;36711;51.972;21.204;2023-09-12T03:13:11;19.50;;;11.40;;
50745;SDS011;36711;51.972;21.204;2023-09-12T03:15:47;18.30;;;11.30;;
50745;SDS011;36711;51.972;21.204;2023-09-12T03:18:21;19.00;;;12.30;;
50745;SDS011;36711;51.972;21.204;2023-09-12T03:20:54;16.30;;;12.20;;
50745;SDS011;36711;51.972;21.204;2023-09-12T03:26:00;16.20;;;10.40;;
50745;SDS011;36711;51.972;21.204;2023-09-12T03:28:28;14.90;;;10.00;;
50745;SDS011;36711;51.972;21.204;2023-09-12T03:31:15;16.80;;;11.40;;
50745;SDS011;36711;51.972;21.204;2023-09-12T03:33:51;16.60;;;11.80;;
50745;SDS011;36711;51.972;21.204;2023-09-12T03:36:18;17.10;;;12.30;;
50745;SDS011;36711;51.972;21.204;2023-09-12T03:38:45;17.80;;;12.30;;
50745;SDS011;36711;51.972;21.204;2023-09-12T03:41:12;18.50;;;13.30;;
50745;SDS011;36711;51.972;21.204;2023-09-12T03:43:42;15.90;;;11.40;;
50745;SDS011;36711;51.972;21.204;2023-09-12T03:46:09;17.50;;;12.80;;
50745;SDS011;36711;51.972;21.204;2023-09-12T03:48:39;18.70;;;12.00;;
50745;SDS011;36711;51.972;21.204;2023-09-12T03:51:22;18.10;;;12.80;;
50745;SDS011;36711;51.972;21.204;2023-09-12T03:53:49;25.20;;;12.60;;
50745;SDS011;36711;51.972;21.204;2023-09-12T03:56:29;18.70;;;13.50;;
50745;SDS011;36711;51.972;21.204;2023-09-12T03:59:32;21.50;;;13.60;;
50745;SDS011;36711;51.972;21.204;2023-09-12T04:02:10;21.10;;;13.90;;
50745;SDS011;36711;51.972;21.204;2023-09-12T04:04:43;19.50;;;13.20;;
50745;SDS011;36711;51.972;21.204;2023-09-12T04:07:13;19.10;;;13.30;;
50745;SDS011;36711;51.972;21.204;2023-09-12T04:10:01;21.60;;;15.00;;
50745;SDS011;36711;51.972;21.204;2023-09-12T04:12:40;23.90;;;14.00;;
50745;SDS011;36711;51.972;21.204;2023-09-12T04:15:17;19.90;;;14.00;;
50745;SDS011;36711;51.972;21.204;2023-09-12T04:17:47;19.70;;;13.80;;
50745;SDS011;36711;51.972;21.204;2023-09-12T04:20:15;21.90;;;14.10;;
50745;SDS011;36711;51.972;21.204;2023-09-12T04:22:44;19.00;;;13.10;;
50745;SDS011;36711;51.972;21.204;2023-09-12T04:25:14;17.60;;;13.30;;
50745;SDS011;36711;51.972;21.204;2023-09-12T04:27:43;27.40;;;13.50;;
50745;SDS011;36711;51.972;21.204;2023-09-12T04:30:13;18.90;;;13.90;;
50745;SDS011;36711;51.972;21.204;2023-09-12T04:32:49;22.20;;;14.10;;
50745;SDS011;36711;51.972;21.204;2023-09-12T04:35:34;24.60;;;15.40;;
50745;SDS011;36711;51.972;21.204;2023-09-12T04:38:16;23.00;;;14.70;;
50745;SDS011;36711;51.972;21.204;2023-09-12T04:41:00;21.50;;;14.00;;
50745;SDS011;36711;51.972;21.204;2023-09-12T04:43:37;20.10;;;12.60;;
50745;SDS011;36711;51.972;21.204;2023-09-12T04:46:07;17.40;;;11.70;;
50745;SDS011;36711;51.972;21.204;2023-09-12T04:48:40;16.70;;;12.60;;
50745;SDS011;36711;51.972;21.204;2023-09-12T04:51:25;19.80;;;13.20;;
50745;SDS011;36711;51.972;21.204;2023-09-12T04:54:06;20.00;;;12.80;;
50745;SDS011;36711;51.972;21.204;2023-09-12T04:56:38;20.70;;;13.60;;
50745;SDS011;36711;51.972;21.204;2023-09-12T04:59:19;19.40;;;13.20;;
50745;SDS011;36711;51.972;21.204;2023-09-12T05:01:46;16.50;;;11.50;;
50745;SDS011;36711;51.972;21.204;2023-09-12T05:04:18;16.60;;;11.10;;
50745;SDS011;36711;51.972;21.204;2023-09-12T05:06:45;16.90;;;13.00;;
50745;SDS011;36711;51.972;21.204;2023-09-12T05:09:15;18.40;;;12.90;;
50745;SDS011;36711;51.972;21.204;2023-09-12T05:11:43;25.80;;;14.60;;
50745;SDS011;36711;51.972;21.204;2023-09-12T05:14:13;19.40;;;13.30;;
50745;SDS011;36711;51.972;21.204;2023-09-12T05:16:46;17.40;;;12.60;;
50745;SDS011;36711;51.972;21.204;2023-09-12T05:19:24;18.10;;;11.80;;
50745;SDS011;36711;51.972;21.204;2023-09-12T05:21:57;18.10;;;10.80;;
50745;SDS011;36711;51.972;21.204;2023-09-12T05:24:41;21.30;;;13.50;;
50745;SDS011;36711;51.972;21.204;2023-09-12T05:27:10;22.00;;;14.20;;
50745;SDS011;36711;51.972;21.204;2023-09-12T05:29:43;20.80;;;13.50;;
50745;SDS011;36711;51.972;21.204;2023-09-12T05:32:24;22.50;;;13.40;;
50745;SDS011;36711;51.972;21.204;2023-09-12T05:35:03;16.20;;;11.20;;
50745;SDS011;36711;51.972;21.204;2023-09-12T05:38:01;19.10;;;12.10;;
50745;SDS011;36711;51.972;21.204;2023-09-12T05:40:46;26.20;;;13.60;;
50745;SDS011;36711;51.972;21.204;2023-09-12T05:43:29;19.00;;;13.30;;
50745;SDS011;36711;51.972;21.204;2023-09-12T05:46:25;41.40;;;14.40;;
50745;SDS011;36711;51.972;21.204;2023-09-12T05:49:01;20.00;;;13.60;;
50745;SDS011;36711;51.972;21.204;2023-09-12T05:51:37;25.80;;;12.40;;
50745;SDS011;36711;51.972;21.204;2023-09-12T05:54:14;20.10;;;11.90;;
50745;SDS011;36711;51.972;21.204;2023-09-12T05:56:46;21.80;;;12.00;;
50745;SDS011;36711;51.972;21.204;2023-09-12T05:59:14;22.50;;;13.50;;
50745;SDS011;36711;51.972;21.204;2023-09-12T06:01:41;18.70;;;13.10;;
50745;SDS011;36711;51.972;21.204;2023-09-12T06:04:18;20.30;;;14.20;;
50745;SDS011;36711;51.972;21.204;2023-09-12T06:06:48;19.60;;;14.30;;
50745;SDS011;36711;51.972;21.204;2023-09-12T06:09:32;19.80;;;13.80;;
50745;SDS011;36711;51.972;21.204;2023-09-12T06:14:59;23.10;;;15.60;;
50745;SDS011;36711;51.972;21.204;2023-09-12T06:17:26;33.70;;;16.70;;
50745;SDS011;36711;51.972;21.204;2023-09-12T06:20:07;31.00;;;17.30;;
50745;SDS011;36711;51.972;21.204;2023-09-12T06:22:36;32.70;;;16.00;;
50745;SDS011;36711;51.972;21.204;2023-09-12T06:25:16;25.90;;;16.60;;
50745;SDS011;36711;51.972;21.204;2023-09-12T06:27:44;26.10;;;17.10;;
50745;SDS011;36711;51.972;21.204;2023-09-12T06:30:18;25.40;;;19.30;;
50745;SDS011;36711;51.972;21.204;2023-09-12T06:32:52;29.30;;;21.00;;
50745;SDS011;36711;51.972;21.204;2023-09-12T06:35:19;24.60;;;20.10;;
50745;SDS011;36711;51.972;21.204;2023-09-12T06:38:40;28.80;;;17.90;;
50745;SDS011;36711;51.972;21.204;2023-09-12T06:41:14;23.90;;;15.70;;
50745;SDS011;36711;51.972;21.204;2023-09-12T06:43:46;21.40;;;14.70;;
50745;SDS011;36711;51.972;21.204;2023-09-12T06:46:24;23.10;;;15.00;;
50745;SDS011;36711;51.972;21.204;2023-09-12T06:49:13;23.70;;;15.10;;
50745;SDS011;36711;51.972;21.204;2023-09-12T06:51:51;21.80;;;15.60;;
50745;SDS011;36711;51.972;21.204;2023-09-12T06:54:46;31.70;;;15.00;;
50745;SDS011;36711;51.972;21.204;2023-09-12T06:57:18;21.70;;;13.80;;
50745;SDS011;36711;51.972;21.204;2023-09-12T06:59:57;18.80;;;12.80;;
50745;SDS011;36711;51.972;21.204;2023-09-12T07:02:29;19.50;;;12.00;;
50745;SDS011;36711;51.972;21.204;2023-09-12T07:05:08;21.90;;;13.80;;
50745;SDS011;36711;51.972;21.204;2023-09-12T07:08:05;20.50;;;13.70;;
50745;SDS011;36711;51.972;21.204;2023-09-12T07:11:06;22.00;;;13.60;;
50745;SDS011;36711;51.972;21.204;2023-09-12T07:13:43;20.60;;;13.80;;
50745;SDS011;36711;51.972;21.204;2023-09-12T07:16:17;22.60;;;14.00;;
50745;SDS011;36711;51.972;21.204;2023-09-12T07:18:55;24.70;;;14.40;;
50745;SDS011;36711;51.972;21.204;2023-09-12T07:21:34;18.50;;;12.50;;
50745;SDS011;36711;51.972;21.204;2023-09-12T07:24:19;20.10;;;12.70;;
50745;SDS011;36711;51.972;21.204;2023-09-12T07:26:51;24.10;;;11.80;;
50745;SDS011;36711;51.972;21.204;2023-09-12T07:32:15;16.50;;;11.90;;
50745;SDS011;36711;51.972;21.204;2023-09-12T07:34:45;20.70;;;13.30;;
50745;SDS011;36711;51.972;21.204;2023-09-12T07:37:17;18.60;;;13.50;;
50745;SDS011;36711;51.972;21.204;2023-09-12T07:40:05;16.10;;;11.80;;
50745;SDS011;36711;51.972;21.204;2023-09-12T07:42:39;16.30;;;13.10;;
50745;SDS011;36711;51.972;21.204;2023-09-12T07:45:08;15.30;;;12.20;;
50745;SDS011;36711;51.972;21.204;2023-09-12T07:48:16;18.30;;;12.30;;
50745;SDS011;36711;51.972;21.204;2023-09-12T07:50:46;18.40;;;12.30;;
50745;SDS011;36711;51.972;21.204;2023-09-12T07:53:15;20.00;;;12.00;;
50745;SDS011;36711;51.972;21.204;2023-09-12T07:55:44;15.90;;;10.80;;
50745;SDS011;36711;51.972;21.204;2023-09-12T07:58:22;17.40;;;11.60;;
50745;SDS011;36711;51.972;21.204;2023-09-12T08:01:07;33.00;;;12.00;;
50745;SDS011;36711;51.972;21.204;2023-09-12T08:03:53;14.40;;;10.70;;
50745;SDS011;36711;51.972;21.204;2023-09-12T08:06:34;14.70;;;10.10;;
50745;SDS011;36711;51.972;21.204;2023-09-12T08:09:19;13.70;;;9.90;;
50745;SDS011;36711;51.972;21.204;2023-09-12T08:11:53;14.90;;;9.60;;
50745;SDS011;36711;51.972;21.204;2023-09-12T08:14:28;13.30;;;9.10;;
50745;SDS011;36711;51.972;21.204;2023-09-12T08:19:45;9.00;;;7.70;;
50745;SDS011;36711;51.972;21.204;2023-09-12T08:22:16;18.30;;;8.40;;
50745;SDS011;36711;51.972;21.204;2023-09-12T08:24:48;15.40;;;8.40;;
50745;SDS011;36711;51.972;21.204;2023-09-12T08:27:17;9.10;;;7.90;;
50745;SDS011;36711;51.972;21.204;2023-09-12T08:29:47;11.60;;;7.40;;
50745;SDS011;36711;51.972;21.204;2023-09-12T08:32:28;11.50;;;7.60;;
50745;SDS011;36711;51.972;21.204;2023-09-12T08:35:00;10.40;;;7.60;;
50745;SDS011;36711;51.972;21.204;2023-09-12T08:37:31;10.20;;;7.80;;
50745;SDS011;36711;51.972;21.204;2023-09-12T08:40:08;12.60;;;8.00;;
50745;SDS011;36711;51.972;21.204;2023-09-12T08:42:38;13.20;;;7.80;;
50745;SDS011;36711;51.972;21.204;2023-09-12T08:45:15;17.10;;;8.00;;
50745;SDS011;36711;51.972;21.204;2023-09-12T08:47:51;13.90;;;7.20;;
50745;SDS011;36711;51.972;21.204;2023-09-12T08:50:21;12.60;;;7.90;;
50745;SDS011;36711;51.972;21.204;2023-09-12T08:52:54;11.30;;;7.10;;
50745;SDS011;36711;51.972;21.204;2023-09-12T08:55:35;12.80;;;7.00;;
50745;SDS011;36711;51.972;21.204;2023-09-12T08:58:09;9.00;;;6.90;;
50745;SDS011;36711;51.972;21.204;2023-09-12T09:02:41;12.50;;;6.60;;
50745;SDS011;36711;51.972;21.204;2023-09-12T09:05:11;11.90;;;6.40;;
50745;SDS011;36711;51.972;21.204;2023-09-12T09:07:43;11.60;;;5.50;;
50745;SDS011;36711;51.972;21.204;2023-09-12T09:10:14;7.80;;;4.80;;
50745;SDS011;36711;51.972;21.204;2023-09-12T09:12:43;7.20;;;5.20;;
50745;SDS011;36711;51.972;21.204;2023-09-12T09:17:57;8.00;;;4.30;;
50745;SDS011;36711;51.972;21.204;2023-09-12T09:26:20;4.80;;;3.70;;
50745;SDS011;36711;51.972;21.204;2023-09-12T09:31:58;7.20;;;3.40;;
50745;SDS011;36711;51.972;21.204;2023-09-12T09:34:34;5.70;;;3.60;;
50745;SDS011;36711;51.972;21.204;2023-09-12T09:37:08;4.90;;;3.70;;
50745;SDS011;36711;51.972;21.204;2023-09-12T09:39:37;4.00;;;3.40;;
50745;SDS011;36711;51.972;21.204;2023-09-12T09:42:09;10.90;;;3.80;;
50745;SDS011;36711;51.972;21.204;2023-09-12T09:44:46;3.50;;;3.30;;
50745;SDS011;36711;51.972;21.204;2023-09-12T09:47:20;10.70;;;3.40;;
50745;SDS011;36711;51.972;21.204;2023-09-12T09:49:47;5.30;;;3.70;;
50745;SDS011;36711;51.972;21.204;2023-09-12T09:52:25;6.10;;;3.50;;
50745;SDS011;36711;51.972;21.204;2023-09-12T09:54:51;17.70;;;3.90;;
50745;SDS011;36711;51.972;21.204;2023-09-12T09:57:25;9.60;;;4.10;;
50745;SDS011;36711;51.972;21.204;2023-09-12T09:59:54;4.70;;;4.10;;
50745;SDS011;36711;51.972;21.204;2023-09-12T10:02:26;6.50;;;4.50;;
50745;SDS011;36711;51.972;21.204;2023-09-12T10:05:03;6.00;;;5.20;;
50745;SDS011;36711;51.972;21.204;2023-09-12T10:07:37;8.70;;;5.60;;
50745;SDS011;36711;51.972;21.204;2023-09-12T10:10:13;6.10;;;5.60;;
50745;SDS011;36711;51.972;21.204;2023-09-12T10:12:43;6.20;;;5.80;;
50745;SDS011;36711;51.972;21.204;2023-09-12T10:15:15;6.60;;;6.00;;
50745;SDS011;36711;51.972;21.204;2023-09-12T10:19:54;3.80;;;3.70;;
50745;SDS011;36711;51.972;21.204;2023-09-12T10:22:32;4.00;;;3.90;;
50745;SDS011;36711;51.972;21.204;2023-09-12T10:25:16;4.70;;;4.50;;
50745;SDS011;36711;51.972;21.204;2023-09-12T10:27:48;4.10;;;4.00;;
50745;SDS011;36711;51.972;21.204;2023-09-12T10:30:29;4.60;;;4.40;;
50745;SDS011;36711;51.972;21.204;2023-09-12T10:36:15;3.90;;;3.80;;
50745;SDS011;36711;51.972;21.204;2023-09-12T10:38:56;4.10;;;4.00;;
50745;SDS011;36711;51.972;21.204;2023-09-12T10:44:20;4.80;;;4.60;;
50745;SDS011;36711;51.972;21.204;2023-09-12T10:46:50;4.30;;;4.20;;
50745;SDS011;36711;51.972;21.204;2023-09-12T10:49:24;4.10;;;4.00;;
50745;SDS011;36711;51.972;21.204;2023-09-12T10:52:00;3.80;;;3.70;;
50745;SDS011;36711;51.972;21.204;2023-09-12T10:54:40;3.50;;;3.40;;
50745;SDS011;36711;51.972;21.204;2023-09-12T10:57:10;3.70;;;3.50;;
50745;SDS011;36711;51.972;21.204;2023-09-12T11:02:46;2.90;;;2.80;;
50745;SDS011;36711;51.972;21.204;2023-09-12T11:07:58;2.00;;;2.00;;
50745;SDS011;36711;51.972;21.204;2023-09-12T11:10:35;2.10;;;2.00;;
50745;SDS011;36711;51.972;21.204;2023-09-12T11:13:03;2.20;;;2.10;;
50745;SDS011;36711;51.972;21.204;2023-09-12T11:15:37;2.50;;;2.30;;
50745;SDS011;36711;51.972;21.204;2023-09-12T11:18:14;3.00;;;2.80;;
50745;SDS011;36711;51.972;21.204;2023-09-12T11:21:02;4.10;;;3.80;;
50745;SDS011;36711;51.972;21.204;2023-09-12T11:23:41;6.40;;;5.20;;
50745;SDS011;36711;51.972;21.204;2023-09-12T11:26:20;10.40;;;5.40;;
50745;SDS011;36711;51.972;21.204;2023-09-12T11:28:55;5.40;;;4.90;;
50745;SDS011;36711;51.972;21.204;2023-09-12T11:31:34;5.30;;;4.80;;
50745;SDS011;36711;51.972;21.204;2023-09-12T11:34:08;5.10;;;4.30;;
50745;SDS011;36711;51.972;21.204;2023-09-12T11:36:45;10.10;;;4.30;;
50745;SDS011;36711;51.972;21.204;2023-09-12T11:39:24;4.50;;;4.10;;
50745;SDS011;36711;51.972;21.204;2023-09-12T11:41:57;7.60;;;4.00;;
50745;SDS011;36711;51.972;21.204;2023-09-12T11:44:26;6.00;;;4.00;;
50745;SDS011;36711;51.972;21.204;2023-09-12T11:46:55;6.60;;;3.90;;
50745;SDS011;36711;51.972;21.204;2023-09-12T11:49:22;5.00;;;4.00;;
50745;SDS011;36711;51.972;21.204;2023-09-12T11:51:53;36.60;;;4.90;;
50745;SDS011;36711;51.972;21.204;2023-09-12T11:54:24;15.50;;;4.60;;
50745;SDS011;36711;51.972;21.204;2023-09-12T11:56:52;4.10;;;3.80;;
50745;SDS011;36711;51.972;21.204;2023-09-12T11:59:32;8.20;;;5.80;;
50745;SDS011;36711;51.972;21.204;2023-09-12T12:02:09;5.90;;;4.40;;
50745;SDS011;36711;51.972;21.204;2023-09-12T12:04:50;4.80;;;4.40;;
50745;SDS011;36711;51.972;21.204;2023-09-12T12:07:20;4.40;;;3.90;;
50745;SDS011;36711;51.972;21.204;2023-09-12T12:09:53;64.40;;;5.40;;
50745;SDS011;36711;51.972;21.204;2023-09-12T12:12:25;8.20;;;4.50;;
50745;SDS011;36711;51.972;21.204;2023-09-12T12:14:53;4.80;;;4.10;;
50745;SDS011;36711;51.972;21.204;2023-09-12T12:17:40;47.30;;;5.70;;
50745;SDS011;36711;51.972;21.204;2023-09-12T12:20:16;4.60;;;4.20;;
50745;SDS011;36711;51.972;21.204;2023-09-12T12:22:43;5.80;;;4.60;;
50745;SDS011;36711;51.972;21.204;2023-09-12T12:25:14;18.60;;;6.20;;
50745;SDS011;36711;51.972;21.204;2023-09-12T12:27:45;6.10;;;4.90;;
50745;SDS011;36711;51.972;21.204;2023-09-12T12:30:15;6.20;;;4.60;;
50745;SDS011;36711;51.972;21.204;2023-09-12T12:35:30;10.30;;;4.70;;
50745;SDS011;36711;51.972;21.204;2023-09-12T12:37:57;6.50;;;5.00;;
50745;SDS011;36711;51.972;21.204;2023-09-12T12:40:43;6.90;;;4.80;;
50745;SDS011;36711;51.972;21.204;2023-09-12T12:43:17;8.80;;;4.80;;
50745;SDS011;36711;51.972;21.204;2023-09-12T12:45:56;5.90;;;4.60;;
50745;SDS011;36711;51.972;21.204;2023-09-12T12:48:44;5.50;;;5.00;;
50745;SDS011;36711;51.972;21.204;2023-09-12T12:51:16;5.90;;;4.80;;
50745;SDS011;36711;51.972;21.204;2023-09-12T12:53:46;9.50;;;5.30;;
50745;SDS011;36711;51.972;21.204;2023-09-12T12:56:21;11.00;;;5.00;;
50745;SDS011;36711;51.972;21.204;2023-09-12T12:58:49;25.00;;;6.00;;
50745;SDS011;36711;51.972;21.204;2023-09-12T13:04:18;11.10;;;5.70;;
50745;SDS011;36711;51.972;21.204;2023-09-12T13:06:52;6.50;;;5.60;;
50745;SDS011;36711;51.972;21.204;2023-09-12T13:09:19;9.50;;;5.50;;
50745;SDS011;36711;51.972;21.204;2023-09-12T13:11:46;7.80;;;5.50;;
50745;SDS011;36711;51.972;21.204;2023-09-12T13:14:16;9.70;;;5.60;;
50745;SDS011;36711;51.972;21.204;2023-09-12T13:16:45;9.80;;;5.50;;
50745;SDS011;36711;51.972;21.204;2023-09-12T13:19:19;6.80;;;5.70;;
50745;SDS011;36711;51.972;21.204;2023-09-12T13:21:53;14.40;;;5.80;;
50745;SDS011;36711;51.972;21.204;2023-09-12T13:24:21;5.80;;;5.20;;
50745;SDS011;36711;51.972;21.204;2023-09-12T13:26:56;7.10;;;5.20;;
50745;SDS011;36711;51.972;21.204;2023-09-12T13:29:26;7.60;;;5.40;;
50745;SDS011;36711;51.972;21.204;2023-09-12T13:32:13;9.30;;;5.60;;
50745;SDS011;36711;51.972;21.204;2023-09-12T13:48:41;11.20;;;8.70;;
50745;SDS011;36711;51.972;21.204;2023-09-12T13:51:15;8.20;;;6.50;;
50745;SDS011;36711;51.972;21.204;2023-09-12T13:54:00;10.70;;;6.60;;
50745;SDS011;36711;51.972;21.204;2023-09-12T13:56:34;7.70;;;6.20;;
50745;SDS011;36711;51.972;21.204;2023-09-12T13:59:10;7.60;;;6.00;;
50745;SDS011;36711;51.972;21.204;2023-09-12T14:02:02;6.20;;;5.50;;
50745;SDS011;36711;51.972;21.204;2023-09-12T14:04:46;8.30;;;5.70;;
50745;SDS011;36711;51.972;21.204;2023-09-12T14:07:38;7.10;;;5.90;;
50745;SDS011;36711;51.972;21.204;2023-09-12T14:10:29;14.90;;;8.20;;
50745;SDS011;36711;51.972;21.204;2023-09-12T14:13:08;10.40;;;6.50;;
50745;SDS011;36711;51.972;21.204;2023-09-12T14:15:39;11.40;;;7.60;;
50745;SDS011;36711;51.972;21.204;2023-09-12T14:18:08;7.00;;;5.60;;
50745;SDS011;36711;51.972;21.204;2023-09-12T14:20:44;20.20;;;7.40;;
50745;SDS011;36711;51.972;21.204;2023-09-12T14:23:19;16.50;;;7.40;;
50745;SDS011;36711;51.972;21.204;2023-09-12T14:25:56;10.00;;;6.40;;
50745;SDS011;36711;51.972;21.204;2023-09-12T14:28:32;11.80;;;9.80;;
50745;SDS011;36711;51.972;21.204;2023-09-12T14:31:12;14.70;;;7.80;;
50745;SDS011;36711;51.972;21.204;2023-09-12T14:33:44;9.10;;;6.30;;
50745;SDS011;36711;51.972;21.204;2023-09-12T14:36:17;8.40;;;5.90;;
50745;SDS011;36711;51.972;21.204;2023-09-12T14:38:47;14.60;;;6.10;;
50745;SDS011;36711;51.972;21.204;2023-09-12T14:41:13;10.80;;;6.10;;
50745;SDS011;36711;51.972;21.204;2023-09-12T14:43:46;7.20;;;6.00;;
50745;SDS011;36711;51.972;21.204;2023-09-12T14:46:43;7.30;;;6.00;;
50745;SDS011;36711;51.972;21.204;2023-09-12T14:49:14;17.60;;;6.20;;
50745;SDS011;36711;51.972;21.204;2023-09-12T14:51:44;10.50;;;6.50;;
50745;SDS011;36711;51.972;21.204;2023-09-12T14:54:14;14.20;;;6.20;;
50745;SDS011;36711;51.972;21.204;2023-09-12T14:56:53;10.30;;;6.30;;
50745;SDS011;36711;51.972;21.204;2023-09-12T14:59:23;11.10;;;6.10;;
50745;SDS011;36711;51.972;21.204;2023-09-12T15:01:54;9.30;;;6.60;;
50745;SDS011;36711;51.972;21.204;2023-09-12T15:04:23;9.10;;;6.20;;
50745;SDS011;36711;51.972;21.204;2023-09-12T15:07:12;7.10;;;6.40;;
50745;SDS011;36711;51.972;21.204;2023-09-12T15:09:49;19.90;;;7.00;;
50745;SDS011;36711;51.972;21.204;2023-09-12T15:12:26;9.10;;;6.70;;
50745;SDS011;36711;51.972;21.204;2023-09-12T15:15:25;23.70;;;7.00;;
50745;SDS011;36711;51.972;21.204;2023-09-12T15:17:54;15.00;;;6.50;;
50745;SDS011;36711;51.972;21.204;2023-09-12T15:20:20;7.00;;;6.00;;
50745;SDS011;36711;51.972;21.204;2023-09-12T15:22:49;11.30;;;6.40;;
50745;SDS011;36711;51.972;21.204;2023-09-12T15:25:28;11.40;;;7.00;;
50745;SDS011;36711;51.972;21.204;2023-09-12T15:30:58;9.60;;;6.60;;
50745;SDS011;36711;51.972;21.204;2023-09-12T15:33:48;11.80;;;7.20;;
50745;SDS011;36711;51.972;21.204;2023-09-12T15:36:17;9.20;;;6.90;;
50745;SDS011;36711;51.972;21.204;2023-09-12T15:38:46;15.20;;;7.30;;
50745;SDS011;36711;51.972;21.204;2023-09-12T15:41:21;12.30;;;6.60;;
50745;SDS011;36711;51.972;21.204;2023-09-12T15:44:05;9.10;;;6.80;;
50745;SDS011;36711;51.972;21.204;2023-09-12T15:46:47;16.20;;;7.50;;
50745;SDS011;36711;51.972;21.204;2023-09-12T15:50:07;24.90;;;7.90;;
50745;SDS011;36711;51.972;21.204;2023-09-12T15:53:11;27.30;;;7.90;;
50745;SDS011;36711;51.972;21.204;2023-09-12T15:55:48;13.70;;;7.80;;
50745;SDS011;36711;51.972;21.204;2023-09-12T15:58:31;14.40;;;7.40;;
50745;SDS011;36711;51.972;21.204;2023-09-12T16:01:12;97.50;;;10.20;;
50745;SDS011;36711;51.972;21.204;2023-09-12T16:03:44;73.70;;;9.40;;
50745;SDS011;36711;51.972;21.204;2023-09-12T16:06:35;53.40;;;9.20;;
50745;SDS011;36711;51.972;21.204;2023-09-12T16:09:07;48.10;;;8.70;;
50745;SDS011;36711;51.972;21.204;2023-09-12T16:11:51;18.10;;;8.80;;
50745;SDS011;36711;51.972;21.204;2023-09-12T16:14:35;55.60;;;10.00;;
50745;SDS011;36711;51.972;21.204;2023-09-12T16:17:27;44.40;;;9.30;;
50745;SDS011;36711;51.972;21.204;2023-09-12T16:20:04;26.40;;;8.50;;